createdAt,value
2022-09-10T00:02:52.107Z,85.27
2022-09-10T00:07:55.794Z,85.13
2022-09-10T00:12:59.211Z,85.11
2022-09-10T00:18:03.404Z,85.11
2022-09-10T00:23:06.746Z,85.05
2022-09-10T00:28:10.366Z,85.03
2022-09-10T00:33:17.096Z,85.25
2022-09-10T00:38:20.590Z,85.27
2022-09-10T00:43:24.315Z,85.40
2022-09-10T00:48:31.660Z,85.33
2022-09-10T00:53:35.046Z,85.64
2022-09-10T00:58:39.000Z,85.72
2022-09-10T01:03:44.986Z,85.49
2022-09-10T01:08:48.325Z,85.36
2022-09-10T01:14:13.523Z,85.58
2022-09-10T01:19:53.724Z,85.78
2022-09-10T01:25:07.173Z,85.48
2022-09-10T01:30:21.781Z,85.51
2022-09-10T01:35:45.348Z,85.38
2022-09-10T01:40:49.771Z,85.29
2022-09-10T01:46:02.051Z,85.32
2022-09-10T01:51:45.552Z,85.44
2022-09-10T01:57:19.735Z,85.31
2022-09-10T02:02:29.845Z,85.12
2022-09-10T02:07:36.342Z,85.02
2022-09-10T02:12:40.368Z,85.16
2022-09-10T02:17:44.646Z,85.12
2022-09-10T02:22:57.230Z,85.21
2022-09-10T02:28:00.999Z,85.39
2022-09-10T02:33:04.783Z,85.32
2022-09-10T02:38:08.802Z,85.36
2022-09-10T02:43:12.117Z,85.36
2022-09-10T02:48:15.423Z,85.34
2022-09-10T02:53:20.071Z,85.25
2022-09-10T02:58:24.392Z,85.32
2022-09-10T03:03:29.561Z,85.25
2022-09-10T03:08:33.107Z,85.29
2022-09-10T03:13:36.592Z,85.41
2022-09-10T03:18:41.750Z,85.36
2022-09-10T03:23:49.795Z,85.42
2022-09-10T03:28:53.409Z,85.54
2022-09-10T03:33:57.910Z,85.67
2022-09-10T03:39:01.549Z,85.63
2022-09-10T03:44:05.575Z,85.57
2022-09-10T03:49:09.600Z,85.53
2022-09-10T03:54:14.247Z,85.59
2022-09-10T03:59:17.960Z,85.60
2022-09-10T04:04:21.545Z,85.57
2022-09-10T04:09:24.991Z,85.57
2022-09-10T04:14:28.416Z,85.58
2022-09-10T04:19:31.952Z,85.56
2022-09-10T04:24:35.450Z,85.68
2022-09-10T04:29:39.015Z,85.50
2022-09-10T04:34:42.981Z,85.43
2022-09-10T04:39:46.426Z,85.37
2022-09-10T04:44:50.024Z,85.56
2022-09-10T04:49:53.603Z,85.42
2022-09-10T04:54:57.059Z,85.27
2022-09-10T05:00:00.470Z,85.35
2022-09-10T05:05:05.233Z,85.58
2022-09-10T05:10:10.651Z,85.39
2022-09-10T05:15:14.646Z,85.31
2022-09-10T05:20:18.197Z,85.32
2022-09-10T05:25:22.758Z,85.18
2022-09-10T05:30:26.176Z,85.14
2022-09-10T05:35:30.522Z,85.42
2022-09-10T05:40:35.763Z,85.57
2022-09-10T05:45:39.120Z,85.42
2022-09-10T05:50:45.765Z,85.50
2022-09-10T05:55:50.103Z,85.56
2022-09-10T06:00:55.128Z,85.44
2022-09-10T06:05:58.466Z,85.50
2022-09-10T06:11:07.919Z,85.33
2022-09-10T06:16:12.093Z,85.26
2022-09-10T06:21:19.468Z,85.39
2022-09-10T06:26:23.291Z,85.35
2022-09-10T06:31:27.900Z,85.21
2022-09-10T06:36:31.648Z,85.06
2022-09-10T06:41:35.480Z,85.02
2022-09-10T06:47:19.599Z,85.04
2022-09-10T06:52:03.155Z,85.00
2022-09-10T06:57:06.505Z,84.82
2022-09-10T07:02:10.441Z,84.82
2022-09-10T07:07:13.767Z,84.72
2022-09-10T07:12:17.689Z,84.68
2022-09-10T07:17:21.277Z,84.38
2022-09-10T07:22:24.814Z,84.26
2022-09-10T07:27:28.223Z,84.18
2022-09-10T07:32:35.946Z,84.00
2022-09-10T07:37:39.655Z,83.87
2022-09-10T07:42:44.084Z,83.50
2022-09-10T07:47:50.135Z,83.11
2022-09-10T07:52:53.455Z,83.07
2022-09-10T07:57:59.983Z,82.62
2022-09-10T08:03:03.788Z,82.54
2022-09-10T08:08:07.221Z,82.86
2022-09-10T08:13:10.610Z,82.58
2022-09-10T08:18:15.047Z,82.30
2022-09-10T08:23:18.413Z,82.10
2022-09-10T08:28:25.621Z,81.96
2022-09-10T08:33:31.794Z,81.81
2022-09-10T08:38:41.009Z,81.54
2022-09-10T08:43:54.183Z,81.22
2022-09-10T08:49:28.060Z,81.25
2022-09-10T08:55:07.112Z,81.26
2022-09-10T09:00:18.210Z,80.96
2022-09-10T09:05:26.015Z,80.64
2022-09-10T09:10:47.865Z,80.36
2022-09-10T09:16:20.260Z,79.65
2022-09-10T09:21:40.366Z,79.08
2022-09-10T09:26:47.424Z,79.50
2022-09-10T09:31:58.868Z,79.69
2022-09-10T09:37:14.056Z,79.55
2022-09-10T09:42:41.839Z,79.51
2022-09-10T09:47:47.303Z,79.57
2022-09-10T09:52:59.401Z,79.82
2022-09-10T09:58:27.106Z,79.92
2022-09-10T10:03:35.689Z,79.85
2022-09-10T10:08:44.461Z,79.80
2022-09-10T10:13:53.209Z,79.61
2022-09-10T10:18:56.510Z,79.82
2022-09-10T10:24:01.274Z,80.16
2022-09-10T10:29:20.049Z,80.15
2022-09-10T10:34:57.355Z,80.01
2022-09-10T10:40:31.184Z,80.17
2022-09-10T10:46:03.004Z,80.28
2022-09-10T10:51:46.412Z,80.36
2022-09-10T10:57:12.458Z,80.47
2022-09-10T11:02:26.317Z,80.64
2022-09-10T11:07:41.512Z,80.57
2022-09-10T11:12:59.870Z,80.45
2022-09-10T11:18:37.130Z,80.53
2022-09-10T11:23:49.195Z,80.56
2022-09-10T11:29:15.651Z,80.55
2022-09-10T11:34:33.298Z,80.46
2022-09-10T11:39:43.643Z,80.06
2022-09-10T11:45:11.253Z,80.18
2022-09-10T11:50:45.595Z,80.12
2022-09-10T11:56:23.426Z,80.07
2022-09-10T12:02:03.053Z,79.94
2022-09-10T12:07:34.145Z,80.06
2022-09-10T12:12:50.077Z,80.18
2022-09-10T12:18:28.381Z,80.25
2022-09-10T12:23:36.861Z,80.09
2022-09-10T12:28:43.325Z,80.05
2022-09-10T12:33:46.813Z,79.85
2022-09-10T12:38:56.540Z,79.69
2022-09-10T12:44:35.420Z,79.47
2022-09-10T12:49:59.525Z,79.32
2022-09-10T12:55:37.746Z,79.16
2022-09-10T13:01:26.382Z,79.15
2022-09-10T13:06:41.846Z,78.98
2022-09-10T13:11:54.473Z,79.01
2022-09-10T13:16:58.066Z,78.89
2022-09-10T13:22:01.697Z,78.85
2022-09-10T13:27:34.269Z,78.84
2022-09-10T13:32:59.305Z,79.11
2022-09-10T13:38:14.494Z,79.15
2022-09-10T13:44:03.782Z,79.11
2022-09-10T13:49:17.028Z,79.03
2022-09-10T13:54:43.743Z,78.97
2022-09-10T13:59:58.436Z,79.18
2022-09-10T14:05:02.409Z,79.18
2022-09-10T14:10:07.551Z,79.21
2022-09-10T14:15:19.365Z,79.21
2022-09-10T14:20:32.512Z,79.38
2022-09-10T14:25:40.343Z,79.63
2022-09-10T14:30:46.240Z,79.48
2022-09-10T14:35:51.963Z,79.38
2022-09-10T14:41:26.056Z,79.48
2022-09-10T14:47:13.746Z,79.54
2022-09-10T14:52:17.383Z,79.65
2022-09-10T14:57:21.189Z,79.67
2022-09-10T15:02:28.692Z,79.69
2022-09-10T15:07:31.976Z,79.70
2022-09-10T15:12:37.261Z,79.56
2022-09-10T15:17:42.088Z,79.62
2022-09-10T15:22:45.533Z,79.72
2022-09-10T15:27:48.947Z,79.76
2022-09-10T15:32:55.935Z,79.84
2022-09-10T15:38:02.120Z,79.85
2022-09-10T15:43:06.325Z,79.93
2022-09-10T15:48:11.310Z,79.93
2022-09-10T15:53:14.713Z,79.92
2022-09-10T15:58:18.235Z,80.07
2022-09-10T16:03:22.200Z,80.19
2022-09-10T16:08:25.683Z,80.33
2022-09-10T16:13:29.087Z,80.24
2022-09-10T16:18:33.574Z,80.43
2022-09-10T16:23:37.861Z,80.71
2022-09-10T16:28:43.113Z,80.85
2022-09-10T16:33:48.378Z,80.93
2022-09-10T16:38:57.954Z,81.14
2022-09-10T16:44:01.340Z,81.33
2022-09-10T16:49:06.698Z,81.38
2022-09-10T16:54:11.975Z,81.68
2022-09-10T16:59:23.971Z,81.68
2022-09-10T17:04:29.433Z,81.82
2022-09-10T17:09:33.160Z,82.18
2022-09-10T17:14:36.684Z,82.46
2022-09-10T17:19:40.293Z,82.45
2022-09-10T17:24:43.602Z,82.61
2022-09-10T17:29:48.355Z,82.79
2022-09-10T17:34:51.838Z,82.91
2022-09-10T17:39:55.499Z,83.59
2022-09-10T17:44:58.907Z,83.32
2022-09-10T17:50:02.416Z,83.18
2022-09-10T17:55:06.759Z,83.21
2022-09-10T18:00:12.606Z,82.79
2022-09-10T18:05:16.546Z,82.94
2022-09-10T18:10:19.816Z,83.00
2022-09-10T18:15:24.034Z,83.00
2022-09-10T18:20:30.736Z,83.15
2022-09-10T18:25:34.180Z,83.13
2022-09-10T18:30:38.428Z,83.08
2022-09-10T18:35:41.799Z,83.07
2022-09-10T18:40:45.169Z,82.94
2022-09-10T18:45:48.566Z,82.79
2022-09-10T18:50:51.962Z,82.93
2022-09-10T18:55:55.495Z,83.04
2022-09-10T19:01:08.435Z,83.19
2022-09-10T19:06:19.204Z,83.11
2022-09-10T19:11:25.202Z,83.15
2022-09-10T19:16:32.301Z,83.03
2022-09-10T19:21:36.842Z,83.11
2022-09-10T19:26:40.196Z,83.28
2022-09-10T19:31:46.530Z,83.40
2022-09-10T19:36:50.106Z,83.50
2022-09-10T19:41:53.481Z,83.41
2022-09-10T19:46:56.979Z,83.67
2022-09-10T19:52:00.286Z,83.88
2022-09-10T19:57:04.459Z,84.14
2022-09-10T20:02:10.129Z,84.43
2022-09-10T20:07:13.802Z,84.69
2022-09-10T20:12:17.542Z,84.93
2022-09-10T20:17:21.088Z,84.62
2022-09-10T20:22:24.465Z,84.47
2022-09-10T20:27:28.223Z,84.49
2022-09-10T20:32:32.406Z,84.38
2022-09-10T20:37:36.036Z,84.19
2022-09-10T20:42:39.651Z,84.14
2022-09-10T20:47:46.623Z,84.25
2022-09-10T20:52:49.912Z,84.30
2022-09-10T20:57:53.268Z,84.53
2022-09-10T21:02:58.097Z,84.47
2022-09-10T21:08:01.762Z,84.35
2022-09-10T21:13:06.064Z,84.21
2022-09-10T21:18:10.027Z,84.26
2022-09-10T21:23:13.407Z,84.22
2022-09-10T21:28:17.027Z,84.29
2022-09-10T21:33:20.440Z,84.19
2022-09-10T21:38:26.003Z,84.18
2022-09-10T21:43:35.050Z,84.28
2022-09-10T21:48:40.266Z,84.32
2022-09-10T21:53:45.308Z,84.36
2022-09-10T21:58:48.947Z,84.36
2022-09-10T22:03:53.673Z,84.25
2022-09-10T22:09:05.325Z,84.09
2022-09-10T22:14:21.697Z,84.14
2022-09-10T22:19:26.457Z,84.25
2022-09-10T22:24:29.907Z,84.26
2022-09-10T22:29:33.316Z,84.20
2022-09-10T22:34:37.972Z,84.21
2022-09-10T22:39:41.406Z,84.18
2022-09-10T22:44:44.786Z,84.17
2022-09-10T22:49:48.101Z,84.06
2022-09-10T22:54:51.512Z,84.17
2022-09-10T22:59:54.849Z,84.21
2022-09-10T23:04:58.243Z,84.21
2022-09-10T23:10:01.656Z,84.24
2022-09-10T23:15:06.287Z,84.14
2022-09-10T23:20:10.746Z,84.07
2022-09-10T23:25:14.145Z,84.02
2022-09-10T23:30:17.924Z,83.92
2022-09-10T23:35:21.310Z,84.00
2022-09-10T23:40:29.951Z,84.17
2022-09-10T23:45:35.792Z,84.24
2022-09-10T23:50:39.178Z,84.14
2022-09-10T23:55:42.520Z,84.04
